Time;durP1;ratioP1;P1;durP2;ratioP2;P2;SDS_P1;SDS_P2;PMS_P1;PMS_P2;Temp;Humidity;BMP_temperature;BMP_pressure;BME280_temperature;BME280_humidity;BME280_pressure;Samples;Min_cycle;Max_cycle;Signal;HPM_P1;HPM_P2
2021/05/13 00:01:39;;;;;;;59.95;8.75;;;9.50;99.90;;;10.15;94.32;97227.34;5199296;28;20313;-77
2021/05/13 00:04:12;;;;;;;12.10;6.32;;;9.40;99.90;;;10.05;94.05;97232.84;5196382;28;20222;-77
2021/05/13 00:06:45;;;;;;;7.47;6.90;;;9.30;99.90;;;9.97;93.37;97237.56;5200414;28;20295;-77
2021/05/13 00:09:18;;;;;;;11.60;7.22;;;9.20;99.90;;;9.96;93.60;97230.72;5195690;28;20210;-77
2021/05/13 00:11:52;;;;;;;8.52;7.82;;;9.20;99.90;;;9.93;93.75;97231.44;5197797;28;20261;-78
2021/05/13 00:14:25;;;;;;;7.53;6.72;;;9.10;99.90;;;9.86;92.90;97229.38;5188976;28;20249;-77
2021/05/13 00:16:57;;;;;;;8.15;7.18;;;9.10;99.90;;;9.88;93.03;97226.91;5202709;28;20258;-77
2021/05/13 00:19:31;;;;;;;7.40;6.70;;;9.10;99.90;;;9.88;92.65;97222.66;5196121;28;20658;-77
2021/05/13 00:22:05;;;;;;;8.90;7.57;;;9.00;99.90;;;9.87;93.59;97223.47;5197912;28;20252;-78
2021/05/13 00:24:38;;;;;;;7.80;7.15;;;9.10;99.90;;;9.84;94.42;97225.88;5198760;28;20195;-77
2021/05/13 00:27:12;;;;;;;8.45;7.35;;;9.10;99.90;;;9.87;95.06;97220.03;5197217;28;20226;-77
2021/05/13 00:29:45;;;;;;;7.70;6.80;;;9.20;99.90;;;9.86;94.76;97228.50;5196928;28;20234;-77
2021/05/13 00:32:17;;;;;;;36.83;7.57;;;9.10;99.90;;;9.77;93.50;97228.91;5196373;28;20235;-77
2021/05/13 00:34:50;;;;;;;7.82;6.28;;;9.00;99.90;;;9.70;94.60;97227.75;5192912;28;20246;-77
2021/05/13 00:37:23;;;;;;;6.40;5.80;;;9.00;99.90;;;9.73;93.48;97237.22;5196694;28;20222;-78
2021/05/13 00:39:56;;;;;;;6.30;5.90;;;8.90;99.90;;;9.68;94.04;97234.44;5195809;28;20646;-77
2021/05/13 00:42:28;;;;;;;7.10;5.78;;;8.90;99.90;;;9.66;92.83;97238.56;5201953;28;20305;-77
2021/05/13 00:45:02;;;;;;;6.78;6.28;;;8.90;99.90;;;9.63;93.43;97235.00;5198863;28;20282;-77
2021/05/13 00:47:37;;;;;;;8.85;5.68;;;8.90;99.90;;;9.63;93.79;97229.91;5200383;28;20199;-77
2021/05/13 00:50:11;;;;;;;6.68;6.18;;;8.90;99.90;;;9.54;93.11;97234.53;5196580;28;20233;-77
2021/05/13 00:52:46;;;;;;;11.70;6.03;;;8.80;99.90;;;9.60;93.80;97239.97;5203072;28;20225;-77
2021/05/13 00:55:20;;;;;;;6.27;5.80;;;8.90;99.90;;;9.46;92.47;97244.34;5197877;28;20244;-77
2021/05/13 00:57:54;;;;;;;6.00;5.60;;;8.70;99.90;;;9.42;92.46;97245.00;5196939;28;20199;-77
2021/05/13 01:00:49;;;;;;;7.00;5.60;;;8.70;99.90;;;9.36;92.43;97245.56;5197444;28;20225;-78
2021/05/13 01:03:21;;;;;;;6.20;5.77;;;8.60;99.90;;;9.21;92.38;97239.66;5193317;28;20229;-78
2021/05/13 01:05:54;;;;;;;6.23;5.83;;;8.60;99.90;;;9.16;93.27;97236.00;5208209;28;20232;-77
2021/05/13 01:08:28;;;;;;;6.63;6.13;;;8.50;99.90;;;9.29;94.19;97233.28;5194637;28;20210;-77
2021/05/13 01:11:00;;;;;;;8.43;7.17;;;8.70;99.90;;;9.42;94.02;97230.56;5198913;28;20209;-78
2021/05/13 01:13:35;;;;;;;8.83;6.83;;;8.70;99.90;;;9.45;93.96;97235.81;5199414;28;20246;-77
2021/05/13 01:16:11;;;;;;;8.03;7.20;;;8.80;99.90;;;9.46;94.40;97232.47;5202027;28;20305;-77
2021/05/13 01:18:44;;;;;;;11.80;6.93;;;8.70;99.90;;;9.43;93.78;97231.44;5191070;28;20210;-77
2021/05/13 01:21:17;;;;;;;7.50;6.87;;;8.70;99.90;;;9.36;93.65;97225.16;5197491;28;20696;-77
2021/05/13 01:23:50;;;;;;;7.40;6.90;;;8.60;99.90;;;9.43;93.86;97227.22;5197907;28;20214;-77
2021/05/13 01:26:23;;;;;;;7.27;6.67;;;8.70;99.90;;;9.47;93.74;97224.03;5198716;28;20289;-77
2021/05/13 01:28:55;;;;;;;7.63;6.97;;;8.70;99.90;;;9.58;93.37;97216.03;5195742;28;20234;-77
2021/05/13 01:31:28;;;;;;;8.20;7.50;;;8.80;99.90;;;9.56;94.51;97218.53;5201103;28;20258;-77
2021/05/13 01:34:01;;;;;;;8.32;7.72;;;8.80;99.90;;;9.59;93.97;97218.66;5195562;28;20210;-77
2021/05/13 01:36:35;;;;;;;7.38;6.82;;;8.90;99.90;;;9.62;93.74;97211.16;5200352;28;20282;-77
2021/05/13 01:39:10;;;;;;;7.73;7.00;;;8.90;99.90;;;9.55;93.54;97216.75;5202943;28;20202;-77
2021/05/13 01:41:44;;;;;;;7.97;7.27;;;8.80;99.90;;;9.52;93.30;97210.63;5199538;28;20218;-77
2021/05/13 01:44:17;;;;;;;7.47;6.90;;;8.80;99.90;;;9.54;93.75;97209.91;5198935;28;20237;-77
2021/05/13 01:46:49;;;;;;;7.80;7.20;;;8.80;99.90;;;9.54;93.58;97203.94;5194260;28;20235;-77
2021/05/13 01:49:24;;;;;;;8.00;7.30;;;8.80;99.90;;;9.51;94.41;97201.22;5197595;28;20202;-77
2021/05/13 01:51:57;;;;;;;7.37;6.77;;;8.80;99.90;;;9.50;93.32;97197.81;5195142;28;20316;-75
2021/05/13 01:54:30;;;;;;;8.50;7.80;;;8.80;99.90;;;9.45;93.22;97210.31;5192941;28;20206;-75
2021/05/13 01:57:03;;;;;;;15.97;8.00;;;8.80;99.90;;;9.33;93.12;97199.50;5195297;28;20214;-77
2021/05/13 01:59:36;;;;;;;8.03;7.40;;;8.60;99.90;;;9.29;93.00;97197.56;5197321;28;20689;-77
2021/05/13 02:02:10;;;;;;;7.60;7.03;;;8.60;99.90;;;9.27;93.15;97194.09;5196831;28;20254;-77
2021/05/13 02:04:43;;;;;;;8.63;8.03;;;8.60;99.90;;;9.25;93.42;97190.59;5197631;28;20699;-77
2021/05/13 02:07:17;;;;;;;7.97;7.37;;;8.50;99.90;;;9.23;92.96;97187.06;5193568;28;20238;-78
2021/05/13 02:09:49;;;;;;;8.77;8.17;;;8.50;99.90;;;9.20;93.61;97182.69;5191835;28;20203;-77
2021/05/13 02:12:22;;;;;;;7.60;7.00;;;8.50;99.90;;;9.21;93.02;97178.47;5192309;28;20282;-77
2021/05/13 02:14:55;;;;;;;7.43;6.90;;;8.50;99.90;;;9.23;92.98;97169.22;5189277;28;20226;-77
2021/05/13 02:17:27;;;;;;;7.83;7.23;;;8.50;99.90;;;9.27;92.85;97173.69;5197539;28;20248;-77
2021/05/13 02:20:00;;;;;;;8.03;7.43;;;8.50;99.90;;;9.32;93.63;97167.13;5195755;28;20230;-78
2021/05/13 02:22:33;;;;;;;8.23;7.63;;;8.60;99.90;;;9.37;93.65;97165.69;5193793;28;20222;-78
2021/05/13 02:25:08;;;;;;;8.83;8.10;;;8.70;99.90;;;9.38;93.93;97167.44;5193309;28;20221;-78
2021/05/13 02:27:41;;;;;;;8.47;7.77;;;8.70;99.90;;;9.40;93.57;97164.97;5189691;28;20198;-77
2021/05/13 02:30:15;;;;;;;8.23;7.63;;;8.70;99.90;;;9.40;93.60;97157.31;5192965;28;20258;-77
2021/05/13 02:32:48;;;;;;;7.20;6.77;;;8.70;99.90;;;9.45;93.70;97159.31;5189605;28;20223;-77
2021/05/13 02:35:21;;;;;;;8.02;7.45;;;8.80;99.90;;;9.47;92.92;97155.16;5192863;28;20290;-77
2021/05/13 02:37:55;;;;;;;8.67;8.00;;;8.80;99.90;;;9.54;93.10;97152.91;5196239;28;20230;-77
2021/05/13 02:40:27;;;;;;;7.43;6.83;;;8.80;99.90;;;9.56;93.29;97156.44;5195123;28;20222;-77
2021/05/13 02:43:00;;;;;;;7.37;6.80;;;8.80;99.90;;;9.56;92.39;97156.44;5192717;28;20238;-77
2021/05/13 02:45:33;;;;;;;7.23;6.73;;;8.80;99.90;;;9.54;92.43;97160.56;5194855;28;20315;-78
2021/05/13 02:48:06;;;;;;;7.80;7.20;;;8.80;99.90;;;9.51;92.69;97162.97;5193677;28;20233;-77
2021/05/13 02:50:39;;;;;;;8.30;7.60;;;8.80;99.90;;;9.45;92.75;97161.84;5199992;28;20206;-77
2021/05/13 02:53:13;;;;;;;6.90;6.40;;;8.70;99.90;;;9.48;91.29;97167.09;5192289;28;20305;-77
2021/05/13 02:55:46;;;;;;;7.23;6.63;;;8.60;99.90;;;9.37;92.11;97160.59;5192587;28;20289;-77
2021/05/13 02:58:19;;;;;;;7.50;7.00;;;8.60;99.90;;;9.39;92.01;97169.19;5197520;28;20374;-77
2021/05/13 03:00:54;;;;;;;8.00;7.40;;;8.60;99.90;;;9.37;92.95;97164.81;5193455;28;20243;-77
2021/05/13 03:03:27;;;;;;;7.75;7.15;;;8.60;99.90;;;9.42;92.52;97171.03;5192687;28;20272;-77
2021/05/13 03:06:00;;;;;;;7.87;7.37;;;8.60;99.90;;;9.39;93.03;97168.34;5195969;28;20284;-77
2021/05/13 03:08:33;;;;;;;8.00;7.30;;;8.60;99.90;;;9.41;92.51;97169.25;5194096;28;20210;-77
2021/05/13 03:11:06;;;;;;;6.87;6.37;;;8.70;99.90;;;9.35;92.54;97171.50;5202470;28;20344;-77
2021/05/13 03:13:38;;;;;;;7.70;7.10;;;8.60;99.90;;;9.22;92.19;97176.00;5201764;28;20218;-78
2021/05/13 03:16:11;;;;;;;8.13;7.53;;;8.50;99.90;;;9.21;92.15;97168.25;5198258;28;20285;-77
2021/05/13 03:18:47;;;;;;;8.70;7.07;;;8.40;99.90;;;9.24;91.35;97168.41;5202318;28;20221;-77
2021/05/13 03:21:25;;;;;;;6.90;6.37;;;8.40;99.90;;;9.17;92.39;97166.38;5196579;28;20203;-77
2021/05/13 03:24:07;;;;;;;7.10;6.60;;;8.40;99.90;;;9.19;92.85;97164.78;5199142;28;20197;-77
2021/05/13 03:26:54;;;;;;;7.30;6.70;;;8.50;99.90;;;9.22;92.45;97159.84;5202802;28;20709;-77
2021/05/13 03:29:28;;;;;;;6.40;6.00;;;8.50;99.90;;;9.19;93.27;97159.69;5196340;28;20222;-77
2021/05/13 03:32:00;;;;;;;7.33;6.83;;;8.50;99.90;;;9.23;92.29;97164.13;5198075;28;20283;-77
2021/05/13 03:34:33;;;;;;;7.63;7.03;;;8.50;99.90;;;9.27;93.28;97163.50;5196879;28;20206;-77
2021/05/13 03:37:05;;;;;;;6.83;6.33;;;8.50;99.90;;;9.27;92.69;97160.94;5195760;28;20689;-77
2021/05/13 03:39:39;;;;;;;6.60;6.10;;;8.60;99.90;;;9.23;92.44;97161.56;5196076;28;20223;-78
2021/05/13 03:42:12;;;;;;;6.93;6.43;;;8.50;99.90;;;9.28;92.27;97160.13;5195806;28;20317;-77
2021/05/13 03:44:44;;;;;;;6.70;6.20;;;8.60;99.90;;;9.26;92.59;97161.72;5196982;28;20210;-77
2021/05/13 03:47:17;;;;;;;6.23;5.83;;;8.50;99.90;;;9.20;91.77;97166.50;5194435;28;20278;-77
2021/05/13 03:49:50;;;;;;;6.60;6.10;;;8.50;99.90;;;9.17;91.56;97161.25;5195550;28;20206;-77
2021/05/13 03:52:23;;;;;;;6.03;5.63;;;8.40;99.90;;;9.21;91.29;97160.59;5202797;28;20718;-77
2021/05/13 03:54:56;;;;;;;6.30;5.80;;;8.40;99.90;;;9.15;91.03;97155.19;5196140;28;20233;-78
2021/05/13 03:57:29;;;;;;;6.33;5.93;;;8.30;99.90;;;9.08;91.30;97153.16;5190709;28;20684;-77
2021/05/13 04:00:06;;;;;;;5.90;5.50;;;8.30;99.90;;;9.03;91.11;97153.78;5195889;28;20199;-77
2021/05/13 04:02:39;;;;;;;6.70;6.27;;;8.30;99.90;;;9.01;91.79;97144.28;5199276;28;20248;-77
2021/05/13 04:05:13;;;;;;;6.37;5.97;;;8.30;99.90;;;8.96;91.08;97150.84;5190703;28;20256;-77
2021/05/13 04:07:47;;;;;;;6.33;5.80;;;8.20;99.90;;;8.97;91.34;97145.81;5187730;28;20293;-77
2021/05/13 04:10:21;;;;;;;6.00;5.50;;;8.30;99.90;;;9.01;92.03;97146.84;5199245;28;20736;-77
2021/05/13 04:12:56;;;;;;;6.50;6.00;;;8.30;99.90;;;9.01;91.78;97144.28;5191830;28;20306;-77
2021/05/13 04:15:29;;;;;;;6.43;5.97;;;8.30;99.90;;;9.05;91.57;97135.16;5196887;28;20268;-77
2021/05/13 04:18:02;;;;;;;6.10;5.70;;;8.30;99.90;;;9.14;92.21;97135.63;5197359;28;20241;-77
2021/05/13 04:20:35;;;;;;;6.63;6.13;;;8.40;99.90;;;9.28;91.11;97131.22;5202227;28;20289;-77
2021/05/13 04:23:09;;;;;;;5.93;5.50;;;8.50;99.90;;;9.29;90.72;97141.47;5195514;28;20220;-77
2021/05/13 04:25:42;;;;;;;6.40;6.00;;;8.60;99.90;;;9.41;90.64;97143.75;5194822;28;20226;-78
2021/05/13 04:28:14;;;;;;;5.87;5.47;;;8.60;99.90;;;9.35;91.80;97141.78;5191789;28;20233;-77
2021/05/13 04:30:47;;;;;;;6.40;6.00;;;8.60;99.90;;;9.35;91.07;97146.88;5197129;28;20199;-77
2021/05/13 04:33:20;;;;;;;5.83;5.43;;;8.60;99.90;;;9.37;91.16;97145.28;5198749;28;20230;-77
2021/05/13 04:35:52;;;;;;;5.73;5.23;;;8.60;99.90;;;9.36;90.49;97138.44;5194837;28;20265;-78
2021/05/13 04:38:25;;;;;;;5.87;5.50;;;8.60;99.90;;;9.40;90.56;97131.81;5203068;28;20206;-77
2021/05/13 04:40:58;;;;;;;6.13;5.70;;;8.60;99.90;;;9.33;90.54;97138.31;5202734;28;20233;-77
2021/05/13 04:43:35;;;;;;;5.93;5.53;;;8.50;99.90;;;9.38;90.33;97138.50;5186721;28;20263;-78
2021/05/13 04:46:08;;;;;;;6.50;6.00;;;8.60;99.90;;;9.39;90.32;97130.94;5191757;28;20230;-77
2021/05/13 04:48:53;;;;;;;6.03;5.63;;;8.70;99.90;;;9.35;89.81;97131.56;5198622;28;20218;-78
2021/05/13 04:51:29;;;;;;;5.73;5.33;;;8.60;99.90;;;9.44;89.87;97137.16;5191898;28;20485;-78
2021/05/13 04:54:02;;;;;;;6.20;5.70;;;8.70;99.90;;;9.45;89.50;97135.47;5194604;28;20288;-76
2021/05/13 04:56:36;;;;;;;6.27;5.87;;;8.60;99.90;;;9.47;89.69;97136.41;5196612;28;20223;-77
2021/05/13 04:59:08;;;;;;;5.73;5.43;;;8.60;99.90;;;9.63;88.65;97120.19;5202258;28;20222;-77
2021/05/13 05:01:41;;;;;;;6.20;5.80;;;8.60;99.90;;;9.55;87.88;97126.59;5193477;28;20769;-77
2021/05/13 05:04:14;;;;;;;6.30;5.80;;;8.60;99.90;;;9.44;88.95;97129.50;5189116;28;20256;-76
2021/05/13 05:06:46;;;;;;;6.60;6.20;;;8.60;99.90;;;9.30;89.33;97127.94;5192531;28;20242;-77
2021/05/13 05:09:19;;;;;;;7.33;6.83;;;8.60;99.90;;;9.23;90.15;97124.19;5200485;28;21417;-77
2021/05/13 05:11:52;;;;;;;6.83;6.43;;;8.50;99.90;;;9.37;89.91;97135.09;5194692;28;20252;-77
2021/05/13 05:14:25;;;;;;;7.73;7.17;;;8.60;99.90;;;9.39;89.62;97123.28;5194403;28;20290;-77
2021/05/13 05:16:58;;;;;;;7.80;7.23;;;8.60;99.90;;;9.37;90.46;97129.13;5188990;28;20249;-77
2021/05/13 05:19:31;;;;;;;7.33;6.83;;;8.60;99.90;;;9.45;90.34;97132.94;5198717;28;20209;-77
2021/05/13 05:22:05;;;;;;;7.37;6.87;;;8.70;99.90;;;9.52;89.89;97118.78;5197033;28;20496;-77
2021/05/13 05:24:38;;;;;;;8.47;7.87;;;8.70;99.90;;;9.68;90.67;97116.19;5193938;28;20211;-76
2021/05/13 05:27:11;;;;;;;8.30;7.70;;;9.00;99.90;;;9.86;90.34;97106.84;5196764;28;20705;-77
2021/05/13 05:29:44;;;;;;;8.13;7.53;;;9.10;99.90;;;10.00;89.49;97112.63;5200347;28;20221;-77
2021/05/13 05:32:16;;;;;;;7.80;7.20;;;9.30;99.90;;;10.10;89.72;97104.59;5193313;28;20257;-77
2021/05/13 05:34:49;;;;;;;8.17;7.57;;;9.30;99.90;;;10.24;89.51;97109.44;5192714;28;20289;-77
2021/05/13 05:37:21;;;;;;;7.57;6.97;;;9.40;99.90;;;10.33;89.15;97112.44;5200853;28;20263;-77
2021/05/13 05:39:54;;;;;;;7.57;6.90;;;9.50;99.90;;;10.44;88.56;97118.03;5202865;28;20237;-76
2021/05/13 05:42:28;;;;;;;7.55;6.95;;;9.60;99.90;;;10.57;88.66;97117.81;5192990;28;20254;-77
2021/05/13 05:45:01;;;;;;;7.50;6.95;;;9.70;99.90;;;10.65;87.37;97108.81;5198381;28;20229;-76
2021/05/13 05:47:33;;;;;;;6.82;6.30;;;9.80;99.90;;;10.80;86.72;97112.03;5183454;28;20231;-77
2021/05/13 05:50:08;;;;;;;7.65;7.05;;;9.90;99.90;;;10.91;87.09;97109.09;5194170;28;20202;-77
2021/05/13 05:52:41;;;;;;;7.85;7.25;;;10.00;99.90;;;11.03;86.05;97110.47;5193019;28;20717;-77
2021/05/13 05:55:14;;;;;;;8.23;7.63;;;10.10;99.90;;;11.01;85.03;97106.97;5193418;28;20214;-77
2021/05/13 05:57:48;;;;;;;8.57;7.88;;;10.10;99.90;;;11.00;85.53;97099.25;5192031;28;20734;-77
2021/05/13 06:00:21;;;;;;;7.80;7.30;;;10.10;99.90;;;11.11;85.62;97103.13;5197285;28;20622;-77
2021/05/13 06:02:54;;;;;;;8.18;7.55;;;10.20;99.90;;;11.32;84.86;97104.84;5193309;28;20653;-77
2021/05/13 06:05:27;;;;;;;8.27;7.68;;;10.30;99.90;;;11.36;84.31;97105.06;5193649;28;20210;-77
2021/05/13 06:08:00;;;;;;;8.45;7.78;;;10.30;99.90;;;11.36;83.08;97102.50;5185762;28;20207;-78
2021/05/13 06:10:33;;;;;;;8.10;7.50;;;10.30;99.90;;;11.56;84.37;97111.00;5191044;28;20626;-77
2021/05/13 06:13:11;;;;;;;7.53;6.93;;;10.50;99.90;;;11.82;83.26;97108.59;5185327;28;20222;-77
2021/05/13 06:15:44;;;;;;;7.25;6.65;;;10.70;99.90;;;12.60;81.74;97112.50;5200527;28;20230;-77
2021/05/13 06:18:16;;;;;;;6.35;5.95;;;11.20;99.90;;;13.74;76.96;97098.50;5194660;28;20236;-76
2021/05/13 06:20:49;;;;;;;6.28;5.78;;;11.90;99.90;;;14.57;73.14;97101.06;5194522;28;20309;-77
2021/05/13 06:23:21;;;;;;;7.07;6.55;;;12.60;99.90;;;15.37;70.15;97099.00;5187931;28;20619;-77
2021/05/13 06:25:54;;;;;;;5.97;5.57;;;13.20;99.90;;;15.85;66.18;97093.34;5198137;28;20692;-77
2021/05/13 06:28:27;;;;;;;6.50;6.03;;;13.80;99.90;;;15.77;67.10;97094.88;5191640;28;20237;-78
2021/05/13 06:31:00;;;;;;;6.13;5.72;;;14.00;99.90;;;16.88;64.24;97095.59;5195836;28;20237;-79
2021/05/13 06:33:32;;;;;;;6.57;6.07;;;14.50;99.90;;;17.21;60.81;97092.81;5189822;28;20768;-79
2021/05/13 06:36:05;;;;;;;6.90;6.20;;;14.80;99.90;;;17.54;59.78;97091.66;5189321;28;20225;-79
2021/05/13 06:38:38;;;;;;;6.78;6.28;;;15.10;99.90;;;17.80;58.88;97079.22;5198918;28;20289;-79
2021/05/13 06:41:11;;;;;;;6.82;6.32;;;15.40;99.90;;;18.02;57.38;97083.88;5196696;28;20641;-77
2021/05/13 06:43:44;;;;;;;6.70;6.10;;;15.40;99.90;;;18.10;58.02;97088.31;5202378;28;20253;-77
2021/05/13 06:46:16;;;;;;;5.55;5.15;;;15.60;99.90;;;18.23;57.30;97092.81;5205567;28;20248;-77
2021/05/13 06:48:54;;;;;;;6.05;5.60;;;16.10;99.90;;;18.97;55.88;97091.19;5202728;28;20201;-77
2021/05/13 06:51:27;;;;;;;6.15;5.65;;;16.60;99.90;;;19.03;53.89;97088.69;5196093;28;20289;-77
2021/05/13 06:53:59;;;;;;;5.97;5.47;;;16.70;99.90;;;19.10;54.38;97088.78;5200495;28;20744;-76
2021/05/13 06:56:32;;;;;;;5.55;5.05;;;16.90;99.90;;;19.32;54.28;97082.09;5199960;28;20305;-77
2021/05/13 06:59:06;;;;;;;5.90;5.50;;;17.10;99.90;;;19.41;53.74;97083.06;5198689;28;20198;-77
2021/05/13 07:01:38;;;;;;;5.43;5.03;;;17.30;99.90;;;19.85;53.46;97080.88;5199372;28;20210;-77
2021/05/13 07:04:11;;;;;;;5.70;5.20;;;17.60;99.90;;;20.33;51.85;97091.59;5201887;28;20222;-77
2021/05/13 07:06:43;;;;;;;5.45;4.97;;;18.00;99.90;;;20.52;51.32;97089.94;5205901;28;20278;-77
2021/05/13 07:09:16;;;;;;;6.15;5.38;;;18.10;99.90;;;20.52;50.08;97088.25;5198191;28;20222;-78
2021/05/13 07:11:49;;;;;;;5.45;4.97;;;18.30;99.90;;;20.86;49.42;97081.53;5195266;28;20611;-79
2021/05/13 07:14:26;;;;;;;6.30;4.85;;;18.60;99.90;;;21.13;49.26;97075.53;5196341;28;20277;-77
2021/05/13 07:16:59;;;;;;;5.10;4.70;;;18.80;99.90;;;21.63;47.35;97070.44;5193285;28;20256;-80
2021/05/13 07:19:32;;;;;;;4.90;4.50;;;19.00;99.90;;;21.80;46.86;97069.59;5198310;28;20281;-77
2021/05/13 07:22:05;;;;;;;4.70;4.28;;;18.90;99.90;;;22.00;46.53;97061.75;5190892;28;20257;-78
2021/05/13 07:24:38;;;;;;;4.63;4.22;;;18.90;99.90;;;22.23;45.43;97063.50;5199048;28;20258;-78
2021/05/13 07:27:10;;;;;;;4.78;4.22;;;19.00;99.90;;;22.45;45.19;97059.97;5198046;28;20198;-78
2021/05/13 07:29:44;;;;;;;5.00;4.47;;;19.30;99.90;;;22.44;44.01;97053.03;5199395;28;20238;-78
2021/05/13 07:32:17;;;;;;;4.57;4.18;;;19.00;99.90;;;22.98;44.02;97054.59;5197903;28;20237;-78
2021/05/13 07:34:49;;;;;;;5.95;4.40;;;19.30;99.90;;;23.32;42.10;97044.81;5198153;28;20222;-78
2021/05/13 07:37:22;;;;;;;4.30;3.90;;;19.60;99.90;;;23.44;42.21;97044.78;5195822;28;20261;-78
2021/05/13 07:39:55;;;;;;;4.53;3.90;;;19.40;99.90;;;23.62;41.54;97046.38;5213119;28;20233;-78
2021/05/13 07:42:28;;;;;;;5.10;4.05;;;19.70;99.90;;;23.74;40.51;97048.03;5201524;28;20277;-78
2021/05/13 07:45:01;;;;;;;4.65;3.45;;;20.20;99.80;;;24.36;40.63;97045.72;5208770;28;20202;-78
2021/05/13 07:47:37;;;;;;;3.70;3.10;;;20.30;99.70;;;24.82;39.30;97045.22;5200360;28;20294;-78
2021/05/13 07:50:12;;;;;;;3.55;3.20;;;20.30;99.10;;;24.90;38.13;97046.00;5197923;28;20209;-78
2021/05/13 07:52:46;;;;;;;3.17;2.85;;;20.70;97.60;;;24.78;37.55;97051.38;5192385;28;20230;-78
2021/05/13 07:55:19;;;;;;;3.35;2.95;;;20.40;97.60;;;24.84;38.48;97051.28;5199677;28;20232;-78
2021/05/13 07:57:52;;;;;;;3.75;3.30;;;20.80;98.10;;;24.98;38.54;97045.88;5198066;28;20654;-78
2021/05/13 08:00:25;;;;;;;4.85;3.20;;;21.30;97.40;;;24.69;37.38;97042.75;5186313;28;20198;-78
2021/05/13 08:02:58;;;;;;;2.97;2.60;;;21.40;95.40;;;24.24;39.12;97044.13;5194894;28;20276;-79
2021/05/13 08:05:31;;;;;;;4.65;2.90;;;21.40;95.60;;;23.80;39.63;97041.03;5191897;28;20229;-78
2021/05/13 08:08:04;;;;;;;2.80;2.60;;;21.30;95.40;;;23.20;40.56;97034.47;5193118;28;20225;-79
2021/05/13 08:10:37;;;;;;;4.72;2.80;;;21.20;95.40;;;22.58;42.31;97039.13;5196578;28;20246;-78
2021/05/13 08:13:09;;;;;;;2.00;1.80;;;20.80;96.40;;;22.88;40.81;97032.91;5196666;28;20321;-79
2021/05/13 08:15:43;;;;;;;1.85;1.75;;;20.80;95.20;;;22.98;39.47;97033.72;5199930;28;20249;-79
2021/05/13 08:18:15;;;;;;;2.10;1.90;;;21.30;93.30;;;22.60;39.13;97033.00;5186103;28;20258;-79
2021/05/13 08:20:48;;;;;;;2.60;1.70;;;21.10;91.60;;;22.91;37.87;97028.53;5188598;28;20281;-79
2021/05/13 08:23:20;;;;;;;3.25;2.08;;;21.20;91.70;;;22.97;37.47;97027.66;5189826;28;20226;-79
2021/05/13 08:25:53;;;;;;;2.15;1.50;;;21.00;91.80;;;23.08;37.94;97020.66;5189661;28;20218;-79
2021/05/13 08:28:26;;;;;;;3.10;1.77;;;21.00;91.80;;;23.06;37.63;97021.53;5195722;28;20252;-79
2021/05/13 08:30:59;;;;;;;3.03;1.80;;;21.30;91.10;;;23.02;37.49;97017.22;5192741;28;20238;-78
2021/05/13 08:33:32;;;;;;;3.55;2.10;;;21.10;91.40;;;22.56;39.07;97020.00;5188904;28;20222;-78
2021/05/13 08:36:05;;;;;;;16.70;15.02;;;21.20;91.60;;;22.83;37.37;97017.28;5185324;28;20297;-78
2021/05/13 08:38:38;;;;;;;4.50;4.18;;;21.40;90.00;;;23.05;36.66;97009.38;5201025;28;20268;-78
2021/05/13 08:41:11;;;;;;;3.72;2.17;;;21.70;88.50;;;23.09;36.36;97009.38;5186980;28;20234;-78
2021/05/13 08:43:49;;;;;;;2.45;2.25;;;21.50;88.00;;;22.93;36.39;97016.34;5192677;28;20300;-78
2021/05/13 08:46:23;;;;;;;3.50;2.20;;;21.40;87.70;;;22.71;37.43;97009.53;5182215;28;20194;-78
2021/05/13 08:48:55;;;;;;;27.67;17.60;;;21.30;89.60;;;22.85;37.03;97010.31;5189189;28;20678;-78
2021/05/13 08:51:28;;;;;;;4.05;3.65;;;21.40;89.00;;;22.87;36.98;97003.38;5196393;28;20237;-78
2021/05/13 08:54:00;;;;;;;3.38;2.30;;;21.70;85.80;;;22.77;36.92;97004.28;5196816;28;20641;-78
2021/05/13 08:56:34;;;;;;;5.78;4.63;;;21.50;88.70;;;22.64;37.30;97007.81;5195881;28;20194;-78
2021/05/13 08:59:06;;;;;;;23.95;14.45;;;21.50;87.70;;;22.62;37.46;97004.34;5190986;28;20195;-79
2021/05/13 09:01:56;;;;;;;3.72;2.35;;;21.10;88.50;;;22.16;36.77;97001.88;5192527;28;20285;-79
2021/05/13 09:04:38;;;;;;;2.63;2.10;;;20.90;86.60;;;21.89;38.56;96990.66;5188562;28;20207;-78
2021/05/13 09:07:21;;;;;;;2.72;2.25;;;20.90;88.40;;;21.80;38.40;96982.84;5186377;28;20229;-78
2021/05/13 09:10:13;;;;;;;2.67;2.47;;;20.90;88.50;;;21.61;39.70;96994.16;5185036;28;20238;-78
2021/05/13 09:12:49;;;;;;;8.55;6.20;;;20.50;90.00;;;21.46;39.74;96984.59;5187810;28;20254;-78
2021/05/13 09:15:24;;;;;;;102.47;79.38;;;20.30;90.60;;;21.57;41.41;96988.06;5191525;28;20801;-78
2021/05/13 09:18:04;;;;;;;34.40;29.85;;;20.40;91.50;;;21.41;41.93;96976.81;5190677;28;20258;-78
2021/05/13 09:20:39;;;;;;;16.38;13.63;;;20.20;91.70;;;21.05;41.56;96983.69;5188392;28;20285;-78
2021/05/13 09:23:14;;;;;;;4.80;4.00;;;19.90;91.80;;;21.02;42.61;96981.09;5190088;28;20226;-78
2021/05/13 09:26:05;;;;;;;3.55;2.70;;;19.40;92.80;;;20.95;42.45;96974.16;5195265;28;20569;-78
2021/05/13 09:28:39;;;;;;;2.92;2.50;;;19.50;93.10;;;20.85;43.08;96980.19;5188891;28;20658;-78
2021/05/13 09:31:36;;;;;;;3.95;2.60;;;19.30;93.50;;;20.75;42.88;96981.91;5190281;28;20700;-79
2021/05/13 09:34:11;;;;;;;2.72;2.42;;;19.30;93.20;;;20.67;43.19;96975.81;5189700;28;20237;-78
2021/05/13 09:36:44;;;;;;;3.08;2.40;;;19.00;93.50;;;20.54;42.83;96964.50;5190967;28;20225;-79
2021/05/13 09:39:27;;;;;;;3.67;3.17;;;19.10;93.10;;;20.38;43.33;96967.91;5191339;28;20247;-79
2021/05/13 09:42:01;;;;;;;3.35;2.13;;;18.90;93.40;;;20.25;43.92;96967.81;5189743;28;20296;-79
2021/05/13 09:44:35;;;;;;;2.30;2.20;;;18.60;94.10;;;20.24;44.79;96970.44;5184494;28;20386;-78
2021/05/13 09:47:16;;;;;;;4.15;2.60;;;18.50;94.70;;;20.28;44.69;96963.50;5191397;28;20571;-78
2021/05/13 09:49:59;;;;;;;2.95;2.40;;;18.70;95.00;;;20.59;43.00;96955.00;5181001;28;20211;-78
2021/05/13 09:52:53;;;;;;;3.03;2.30;;;19.30;93.00;;;20.69;41.40;96949.00;5188755;28;20267;-78
2021/05/13 09:55:29;;;;;;;2.58;2.38;;;19.70;92.00;;;20.73;41.23;96952.44;5181524;28;20257;-78
2021/05/13 09:58:06;;;;;;;3.13;2.25;;;19.70;91.20;;;20.91;40.27;96949.00;5188760;28;20284;-78
2021/05/13 10:00:42;;;;;;;3.33;2.05;;;19.90;90.40;;;20.85;40.70;96943.81;5187293;28;20209;-78
2021/05/13 10:03:19;;;;;;;2.13;1.92;;;19.90;90.60;;;21.11;40.37;96947.31;5184810;28;20269;-78
2021/05/13 10:05:54;;;;;;;2.80;1.90;;;20.30;90.00;;;21.12;38.10;96945.59;5189054;28;20206;-78
2021/05/13 10:08:26;;;;;;;2.45;2.20;;;20.20;86.40;;;20.92;39.08;96945.56;5192701;28;20198;-79
2021/05/13 10:11:00;;;;;;;3.53;2.10;;;20.20;88.10;;;20.85;39.82;96934.28;5188108;28;20217;-78
2021/05/13 10:13:33;;;;;;;3.03;1.92;;;20.10;88.60;;;21.00;39.64;96938.63;5169980;28;20302;-79
2021/05/13 10:16:06;;;;;;;3.38;2.00;;;20.20;88.80;;;21.21;40.23;96931.75;5187000;28;20639;-79
2021/05/13 10:18:43;;;;;;;2.00;1.77;;;20.50;89.70;;;21.28;40.15;96928.25;5184341;28;20318;-79
2021/05/13 10:21:20;;;;;;;2.20;2.00;;;20.60;89.40;;;21.38;38.76;96918.78;5176134;28;20222;-79
2021/05/13 10:23:56;;;;;;;2.67;1.60;;;20.60;87.40;;;21.54;38.74;96918.72;5186517;28;20210;-79
2021/05/13 10:26:46;;;;;;;1.63;1.52;;;20.90;86.30;;;21.75;37.36;96919.59;5192607;28;21798;-79
2021/05/13 10:29:36;;;;;;;1.90;1.80;;;21.00;84.60;;;21.88;37.53;96917.81;5186454;28;20289;-78
2021/05/13 10:32:16;;;;;;;2.03;1.73;;;21.20;84.50;;;21.94;39.41;96916.03;5185691;28;20720;-77
2021/05/13 10:34:52;;;;;;;2.88;2.40;;;21.20;87.90;;;22.08;38.43;96909.94;5185277;28;20240;-78
2021/05/13 10:37:34;;;;;;;1.95;1.75;;;21.30;86.50;;;22.24;37.30;96909.03;5184146;28;20448;-79
2021/05/13 10:40:28;;;;;;;2.25;2.05;;;21.40;85.40;;;22.21;37.27;96909.91;5188776;28;20505;-79
2021/05/13 10:43:04;;;;;;;2.38;1.95;;;21.30;84.50;;;22.14;37.76;96902.94;5183656;28;20215;-79
2021/05/13 10:45:42;;;;;;;2.05;1.90;;;21.00;86.10;;;21.67;37.81;96906.56;5184782;28;20207;-79
2021/05/13 10:48:20;;;;;;;2.55;1.70;;;20.70;85.30;;;21.63;38.56;96904.84;5183718;28;20233;-81
2021/05/13 10:50:57;;;;;;;1.80;1.70;;;20.40;87.30;;;21.62;39.49;96902.25;5199564;28;20199;-80
2021/05/13 10:53:45;;;;;;;3.08;1.90;;;20.20;89.70;;;21.45;40.63;96899.69;5185246;28;20289;-80
2021/05/13 10:56:32;;;;;;;2.33;1.98;;;20.20;90.50;;;21.38;41.37;96908.38;5190243;28;20234;-80